This is the latest recevied weather packets stored in our database for station/object KM5VY. If no packets are shown the sender has not sent any weather packets the latest 1 day(s).
| Time | Temp. | Humidity | Pressure | Rain* | Wind** | Luminosity | Snow |
|---|---|---|---|---|---|---|---|
| 1777981823 | 10° C | 44% | 1013.5 hPa | 0 mm | 0 m/s | - | - |
| 1777981222 | 10° C | 44% | 1013.5 hPa | 0 mm | 0 m/s | - | - |
| 1777980849 | 10° C | 43% | 1013.9 hPa | 0 mm | 1.79 m/s, 293° | - | - |
| 1777980621 | 10° C | 43% | 1013.9 hPa | 0 mm | 1.79 m/s, 293° | - | - |
| 1777980020 | 10° C | 43% | 1013.5 hPa | 0 mm | 0 m/s | - | - |
| 1777979420 | 10° C | 43% | 1013.9 hPa | 0 mm | 0 m/s | - | - |
| 1777978945 | 10° C | 42% | 1013.9 hPa | 0 mm | 0 m/s | - | - |
| 1777978819 | 10° C | 42% | 1013.9 hPa | 0 mm | 0 m/s | - | - |
| 1777977616 | 10° C | 41% | 1013.5 hPa | 0 mm | 0 m/s | - | - |
| 1777977016 | 10° C | 40% | 1013.9 hPa | 0 mm | 0.45 m/s, 293° | - | - |
| 1777976414 | 10° C | 39% | 1013.2 hPa | 0 mm | 0 m/s | - | - |
| 1777975213 | 10.56° C | 38% | 1013.5 hPa | 0 mm | 0 m/s | - | - |
| 1777973410 | 10.56° C | 39% | 1012.5 hPa | 0 mm | 4.47 m/s, 248° | - | - |
| 1777972858 | 10.56° C | 39% | 1012.5 hPa | 0 mm | 2.24 m/s, 270° | - | - |
| 1777972809 | 10.56° C | 39% | 1012.5 hPa | 0 mm | 2.24 m/s, 270° | - | - |
| 1777972207 | 11.11° C | 39% | 1012.5 hPa | 0 mm | 6.26 m/s, 248° | - | - |
| 1777971607 | 11.11° C | 38% | 1012.5 hPa | 0 mm | 5.36 m/s, 293° | - | - |
| 1777971006 | 11.11° C | 38% | 1012.9 hPa | 0 mm | 3.13 m/s, 270° | - | - |
| 1777970405 | 11.11° C | 37% | 1013.2 hPa | 0 mm | 4.92 m/s, 270° | - | - |
| 1777969842 | 11.67° C | 37% | 1013.2 hPa | 0 mm | 4.02 m/s, 270° | - | - |
| 1777969803 | 11.67° C | 37% | 1013.2 hPa | 0 mm | 4.02 m/s, 270° | - | - |
| 1777969203 | 11.67° C | 38% | 1013.2 hPa | 0 mm | 4.02 m/s, 248° | - | - |
| 1777968601 | 11.67° C | 38% | 1013.2 hPa | 0 mm | 5.36 m/s, 248° | - | - |
* Rain latest hour (hover to see other rain measurements)
** Current wind speed in m/s (hover to see current wind gust speed)